Date,TemperatureHighF,TemperatureAvgF,TemperatureLowF,DewpointHighF,DewpointAvgF,DewpointLowF,HumidityHigh,HumidityAvg,HumidityLow,PressureMaxIn,PressureMinIn,WindSpeedMaxMPH,WindSpeedAvgMPH,GustSpeedMaxMPH,PrecipitationSumIn
2013-12-1,51.8,45.7,39.1,38.7,34.1,28.9,76,64,59,30.15,29.93,7,1,13,0.00
2013-12-2,53.9,44.4,36.4,41.6,38.2,33.5,92,79,63,29.93,29.74,3,0,7,0.02
2013-12-3,53.7,44.8,36.3,48.0,41.8,34.7,95,89,78,29.86,29.76,7,0,12,0.00
2013-12-4,62.3,55.3,46.5,57.4,51.9,44.0,94,89,82,29.84,29.69,9,3,18,0.01
2013-12-5,63.1,49.0,32.9,60.2,45.4,30.6,94,88,78,30.11,29.73,8,3,15,0.40
2013-12-6,33.1,29.5,27.2,30.7,27.7,25.7,94,93,90,30.36,30.10,6,1,12,0.07
2013-12-7,29.7,24.3,18.9,25.6,20.9,16.2,94,87,77,30.57,30.36,5,1,12,0.11
2013-12-8,32.8,25.9,20.2,31.5,22.9,16.1,95,88,83,30.50,30.00,5,1,12,0.00
2013-12-9,33.5,30.6,25.7,32.2,27.5,19.8,95,88,78,30.21,29.98,7,1,16,0.00
2013-12-10,29.7,24.4,20.9,19.8,18.2,15.0,91,78,63,30.34,30.09,8,2,20,0.00
2013-12-11,36.8,24.6,14.4,25.0,18.1,11.9,91,77,61,30.49,30.22,9,2,20,0.00
2013-12-12,25.7,18.6,8.8,12.8,8.2,2.7,84,65,39,30.54,30.32,9,2,15,0.00
2013-12-13,39.5,30.2,18.6,31.5,19.5,11.9,92,65,51,30.34,30.13,6,1,17,0.00
2013-12-14,39.2,35.5,32.7,38.2,34.1,31.2,96,94,91,30.14,29.68,5,1,14,0.00
2013-12-15,32.4,29.3,27.9,30.9,24.7,22.0,94,83,70,30.10,29.85,7,2,18,0.00
2013-12-16,35.1,31.2,28.0,33.1,28.8,23.4,94,90,81,30.10,29.96,3,0,12,0.00
2013-12-17,36.9,31.8,28.7,34.1,28.0,25.0,92,86,79,30.14,29.95,8,2,17,0.00
2013-12-18,37.7,31.3,24.1,25.6,21.5,19.1,89,68,47,30.26,30.03,6,2,17,0.00
2013-12-19,54.4,47.2,36.4,42.8,33.2,22.1,69,58,52,30.06,29.93,9,3,22,0.00
2013-12-20,60.0,54.8,51.8,57.1,47.2,37.9,92,77,55,29.93,29.79,10,3,23,0.01
2013-12-21,66.3,60.8,57.3,63.0,58.8,55.6,96,93,88,29.79,29.41,14,3,30,1.43
2013-12-22,62.5,53.4,39.7,60.7,49.2,37.3,95,86,73,30.00,29.53,14,5,29,0.31
2013-12-23,39.5,32.6,26.1,37.1,26.5,19.6,92,78,69,30.36,30.00,6,3,16,0.01
2013-12-24,26.5,20.4,15.1,21.5,13.7,9.2,85,75,62,30.53,30.34,7,2,15,0.00
2013-12-25,35.1,27.5,18.5,24.1,17.9,14.2,83,68,51,30.48,30.17,8,0,14,0.00
2013-12-26,41.3,35.1,31.1,27.7,24.4,20.7,79,65,48,30.34,30.16,9,1,18,0.00
2013-12-27,48.6,39.3,31.2,32.3,28.5,24.9,78,65,53,30.38,30.22,8,2,13,0.00
2013-12-28,52.7,43.8,37.1,34.4,31.4,29.5,75,62,49,30.25,29.99,7,2,14,0.00
2013-12-29,44.5,39.9,33.5,40.2,35.9,29.2,95,86,55,30.00,29.77,8,2,20,0.30
2013-12-30,33.3,28.3,23.9,30.4,21.7,16.7,89,76,67,30.22,30.00,5,1,14,0.00
2013-12-31,34.7,28.7,23.8,22.5,18.6,15.5,77,66,54,30.36,30.15,8,2,17,0.00